createdAt,value
2023-02-25T00:01:57.868Z,96334.00
2023-02-25T00:04:30.587Z,96316.00
2023-02-25T00:06:57.412Z,96346.00
2023-02-25T00:09:24.185Z,96328.00
2023-02-25T00:11:51.074Z,96338.00
2023-02-25T00:14:17.889Z,96345.00
2023-02-25T00:16:45.599Z,96335.00
2023-02-25T00:19:12.850Z,96346.00
2023-02-25T00:21:39.940Z,96337.00
2023-02-25T00:24:15.840Z,96340.00
2023-02-25T00:26:47.614Z,96343.00
2023-02-25T00:29:14.800Z,96352.00
2023-02-25T00:31:44.931Z,96343.00
2023-02-25T00:34:16.060Z,96324.00
2023-02-25T00:36:43.170Z,96351.00
2023-02-25T00:39:12.705Z,96339.00
2023-02-25T00:41:39.623Z,96331.00
2023-02-25T00:44:07.169Z,96338.00
2023-02-25T00:46:35.461Z,96334.00
2023-02-25T00:49:03.382Z,96337.00
2023-02-25T00:51:33.087Z,96338.00
2023-02-25T00:54:00.034Z,96348.00
2023-02-25T00:56:27.082Z,96340.00
2023-02-25T00:58:57.000Z,96331.00
2023-02-25T01:01:33.368Z,96314.00
2023-02-25T01:04:01.100Z,96341.00
2023-02-25T01:06:31.246Z,96345.00
2023-02-25T01:08:59.992Z,96346.00
2023-02-25T01:11:30.939Z,96350.00
2023-02-25T01:14:01.962Z,96338.00
2023-02-25T01:16:32.823Z,96360.00
2023-02-25T01:19:04.493Z,96349.00
2023-02-25T01:21:35.991Z,96337.00
2023-02-25T01:24:23.025Z,96344.00
2023-02-25T01:26:53.389Z,96339.00
2023-02-25T01:29:26.344Z,96338.00
2023-02-25T01:32:02.346Z,96318.00
2023-02-25T01:34:30.765Z,96353.00
2023-02-25T01:36:58.226Z,96338.00
2023-02-25T01:39:28.540Z,96353.00
2023-02-25T01:41:58.393Z,96344.00
2023-02-25T01:44:33.211Z,96350.00
2023-02-25T01:47:01.363Z,96358.00
2023-02-25T01:49:41.699Z,96344.00
2023-02-25T01:52:23.882Z,96326.00
2023-02-25T01:54:57.801Z,96352.00
2023-02-25T01:57:26.070Z,96351.00
2023-02-25T01:59:55.117Z,96342.00
2023-02-25T02:02:26.548Z,96346.00
2023-02-25T02:04:55.743Z,96350.00
2023-02-25T02:07:24.671Z,96365.00
2023-02-25T02:09:58.458Z,96354.00
2023-02-25T02:12:46.083Z,96330.00
2023-02-25T02:15:15.928Z,96359.00
2023-02-25T02:18:00.468Z,96346.00
2023-02-25T02:20:38.872Z,96323.00
2023-02-25T02:23:29.614Z,96331.00
2023-02-25T02:26:37.929Z,96348.00
2023-02-25T02:29:26.806Z,96343.00
2023-02-25T02:32:31.392Z,96338.00
2023-02-25T02:35:26.598Z,96337.00
2023-02-25T02:38:12.226Z,96346.00
2023-02-25T02:40:58.675Z,96336.00
2023-02-25T02:43:49.333Z,96352.00
2023-02-25T02:46:38.292Z,96361.00
2023-02-25T02:49:47.739Z,96345.00
2023-02-25T02:52:24.979Z,96344.00
2023-02-25T02:55:08.324Z,96329.00
2023-02-25T02:57:38.470Z,96332.00
2023-02-25T03:00:17.702Z,96316.00
2023-02-25T03:03:01.703Z,96331.00
2023-02-25T03:05:34.795Z,96343.00
2023-02-25T03:08:29.881Z,96351.00
2023-02-25T03:10:58.021Z,96333.00
2023-02-25T03:13:25.873Z,96335.00
2023-02-25T03:15:54.844Z,96325.00
2023-02-25T03:18:39.163Z,96340.00
2023-02-25T03:21:19.638Z,96340.00
2023-02-25T03:23:55.263Z,96351.00
2023-02-25T03:26:28.120Z,96343.00
2023-02-25T03:29:00.355Z,96334.00
2023-02-25T03:31:44.168Z,96325.00
2023-02-25T03:34:42.232Z,96346.00
2023-02-25T03:37:25.929Z,96357.00
2023-02-25T03:40:00.907Z,96348.00
2023-02-25T03:42:43.453Z,96375.00
2023-02-25T03:45:13.953Z,96361.00
2023-02-25T03:47:43.323Z,96361.00
2023-02-25T03:50:25.794Z,96363.00
2023-02-25T03:52:58.236Z,96349.00
2023-02-25T03:55:53.492Z,96366.00
2023-02-25T03:58:20.595Z,96344.00
2023-02-25T04:00:57.269Z,96353.00
2023-02-25T04:03:24.954Z,96354.00
2023-02-25T04:05:52.609Z,96358.00
2023-02-25T04:08:19.676Z,96359.00
2023-02-25T04:10:48.141Z,96375.00
2023-02-25T04:13:20.700Z,96364.00
2023-02-25T04:15:49.637Z,96364.00
2023-02-25T04:18:17.149Z,96371.00
2023-02-25T04:20:44.201Z,96372.00
2023-02-25T04:23:15.265Z,96391.00
2023-02-25T04:25:43.609Z,96388.00
2023-02-25T04:28:11.261Z,96390.00
2023-02-25T04:30:38.416Z,96384.00
2023-02-25T04:33:05.698Z,96371.00
2023-02-25T04:35:32.498Z,96381.00
2023-02-25T04:37:59.574Z,96373.00
2023-02-25T04:40:26.499Z,96391.00
2023-02-25T04:42:53.415Z,96390.00
2023-02-25T04:45:26.910Z,96392.00
2023-02-25T04:47:57.943Z,96383.00
2023-02-25T04:50:26.231Z,96380.00
2023-02-25T04:52:53.078Z,96386.00
2023-02-25T04:55:20.168Z,96379.00
2023-02-25T04:57:47.206Z,96381.00
2023-02-25T05:00:19.299Z,96393.00
2023-02-25T05:02:50.978Z,96395.00
2023-02-25T05:05:18.886Z,96399.00
2023-02-25T05:07:46.039Z,96389.00
2023-02-25T05:10:14.906Z,96382.00
2023-02-25T05:12:42.329Z,96391.00
2023-02-25T05:15:10.882Z,96380.00
2023-02-25T05:17:40.332Z,96390.00
2023-02-25T05:20:12.661Z,96383.00
2023-02-25T05:22:42.046Z,96382.00
2023-02-25T05:25:10.806Z,96385.00
2023-02-25T05:27:37.953Z,96378.00
2023-02-25T05:30:09.098Z,96399.00
2023-02-25T05:32:36.229Z,96369.00
2023-02-25T05:35:05.619Z,96370.00
2023-02-25T05:37:33.110Z,96372.00
2023-02-25T05:39:59.987Z,96396.00
2023-02-25T05:42:28.016Z,96386.00
2023-02-25T05:44:54.989Z,96387.00
2023-02-25T05:47:21.924Z,96387.00
2023-02-25T05:49:48.750Z,96392.00
2023-02-25T05:52:15.568Z,96382.00
2023-02-25T05:54:43.808Z,96390.00
2023-02-25T05:57:10.597Z,96374.00
2023-02-25T05:59:39.341Z,96382.00
2023-02-25T06:02:08.561Z,96388.00
2023-02-25T06:04:35.444Z,96374.00
2023-02-25T06:07:03.245Z,96385.00
2023-02-25T06:09:30.304Z,96387.00
2023-02-25T06:11:57.802Z,96383.00
2023-02-25T06:14:24.650Z,96397.00
2023-02-25T06:16:51.849Z,96398.00
2023-02-25T06:19:19.029Z,96403.00
2023-02-25T06:21:46.068Z,96396.00
2023-02-25T06:24:12.853Z,96413.00
2023-02-25T06:26:41.869Z,96400.00
2023-02-25T06:29:10.014Z,96422.00
2023-02-25T06:31:40.177Z,96418.00
2023-02-25T06:34:10.498Z,96422.00
2023-02-25T06:36:40.142Z,96397.00
2023-02-25T06:39:09.738Z,96394.00
2023-02-25T06:41:40.906Z,96447.00
2023-02-25T06:44:08.107Z,96410.00
2023-02-25T06:46:43.577Z,96400.00
2023-02-25T06:49:13.052Z,96390.00
2023-02-25T06:51:57.033Z,96451.00
2023-02-25T06:54:29.655Z,96464.00
2023-02-25T06:56:56.533Z,96428.00
2023-02-25T06:59:23.340Z,96441.00
2023-02-25T07:01:50.301Z,96454.00
2023-02-25T07:04:20.673Z,96453.00
2023-02-25T07:06:47.589Z,96465.00
2023-02-25T07:09:23.808Z,96465.00
2023-02-25T07:11:51.599Z,96467.00
2023-02-25T07:14:18.701Z,96459.00
2023-02-25T07:16:53.882Z,96463.00
2023-02-25T07:19:25.902Z,96484.00
2023-02-25T07:21:55.604Z,96488.00
2023-02-25T07:24:23.193Z,96471.00
2023-02-25T07:26:50.125Z,96470.00
2023-02-25T07:29:16.985Z,96477.00
2023-02-25T07:34:28.600Z,96483.00
2023-02-25T07:36:55.721Z,96490.00
2023-02-25T07:39:22.954Z,96474.00
2023-02-25T07:41:50.019Z,96499.00
2023-02-25T07:44:19.922Z,96479.00
2023-02-25T07:46:55.433Z,96474.00
2023-02-25T07:49:22.822Z,96465.00
2023-02-25T07:51:49.635Z,96471.00
2023-02-25T07:54:23.145Z,96479.00
2023-02-25T07:56:53.108Z,96490.00
2023-02-25T07:59:29.157Z,96440.00
2023-02-25T08:02:02.353Z,96478.00
2023-02-25T08:04:30.155Z,96478.00
2023-02-25T08:06:57.123Z,96459.00
2023-02-25T08:09:23.897Z,96484.00
2023-02-25T08:11:51.695Z,96489.00
2023-02-25T08:14:18.729Z,96469.00
2023-02-25T08:16:45.753Z,96470.00
2023-02-25T08:19:12.632Z,96471.00
2023-02-25T08:21:40.497Z,96475.00
2023-02-25T08:24:08.865Z,96472.00
2023-02-25T08:26:41.982Z,96484.00
2023-02-25T08:29:08.848Z,96471.00
2023-02-25T08:31:35.832Z,96484.00
2023-02-25T08:34:02.858Z,96473.00
2023-02-25T08:36:31.847Z,96498.00
2023-02-25T08:39:01.024Z,96496.00
2023-02-25T08:41:30.053Z,96491.00
2023-02-25T08:44:00.134Z,96477.00
2023-02-25T08:46:33.219Z,96499.00
2023-02-25T08:49:00.585Z,96507.00
2023-02-25T08:51:33.906Z,96516.00
2023-02-25T08:54:04.982Z,96506.00
2023-02-25T08:56:32.399Z,96496.00
2023-02-25T08:58:59.534Z,96514.00
2023-02-25T09:01:26.728Z,96517.00
2023-02-25T09:03:54.081Z,96524.00
2023-02-25T09:06:30.472Z,96525.00
2023-02-25T09:08:57.643Z,96529.00
2023-02-25T09:11:26.332Z,96531.00
2023-02-25T09:13:58.756Z,96540.00
2023-02-25T09:16:32.388Z,96551.00
2023-02-25T09:18:59.369Z,96549.00
2023-02-25T09:21:26.344Z,96578.00
2023-02-25T09:23:53.547Z,96571.00
2023-02-25T09:26:22.527Z,96566.00
2023-02-25T09:28:52.988Z,96549.00
2023-02-25T09:31:20.254Z,96549.00
2023-02-25T09:33:51.767Z,96560.00
2023-02-25T09:36:22.981Z,96551.00
2023-02-25T09:38:50.604Z,96568.00
2023-02-25T09:41:23.268Z,96571.00
2023-02-25T09:44:20.980Z,96565.00
2023-02-25T09:47:04.344Z,96558.00
2023-02-25T09:49:42.357Z,96567.00
2023-02-25T09:52:28.548Z,96562.00
2023-02-25T09:55:15.186Z,96562.00
2023-02-25T09:57:45.583Z,96561.00
2023-02-25T10:00:18.859Z,96583.00
2023-02-25T10:03:14.828Z,96582.00
2023-02-25T10:06:00.397Z,96581.00
2023-02-25T10:08:38.608Z,96588.00
2023-02-25T10:11:51.265Z,96588.00
2023-02-25T10:14:34.886Z,96601.00
2023-02-25T10:17:16.738Z,96582.00
2023-02-25T10:20:40.065Z,96581.00
2023-02-25T10:23:06.762Z,96587.00
2023-02-25T10:25:44.033Z,96590.00
2023-02-25T10:28:17.588Z,96599.00
2023-02-25T10:31:06.040Z,96595.00
2023-02-25T10:33:40.399Z,96584.00
2023-02-25T10:36:15.681Z,96569.00
2023-02-25T10:38:52.508Z,96598.00
2023-02-25T10:41:23.536Z,96591.00
2023-02-25T10:43:52.123Z,96599.00
2023-02-25T10:46:44.716Z,96614.00
2023-02-25T10:49:25.892Z,96623.00
2023-02-25T10:52:19.438Z,96630.00
2023-02-25T10:54:53.111Z,96630.00
2023-02-25T10:57:27.107Z,96631.00
2023-02-25T11:00:13.098Z,96626.00
2023-02-25T11:02:44.374Z,96619.00
2023-02-25T11:05:38.775Z,96635.00
2023-02-25T11:08:26.640Z,96621.00
2023-02-25T11:11:30.325Z,96627.00
2023-02-25T11:14:08.905Z,96635.00
2023-02-25T11:16:40.579Z,96638.00
2023-02-25T11:19:22.836Z,96637.00
2023-02-25T11:21:53.322Z,96640.00
2023-02-25T11:24:35.797Z,96612.00
2023-02-25T11:27:09.129Z,96635.00
2023-02-25T11:29:42.488Z,96651.00
2023-02-25T11:32:22.476Z,96629.00
2023-02-25T11:37:46.361Z,96625.00
2023-02-25T11:40:42.314Z,96647.00
2023-02-25T11:43:34.046Z,96632.00
2023-02-25T11:46:12.833Z,96640.00
2023-02-25T11:49:19.996Z,96648.00
2023-02-25T11:52:17.032Z,96638.00
2023-02-25T11:55:37.309Z,96653.00
2023-02-25T11:58:25.019Z,96647.00
2023-02-25T12:01:25.232Z,96642.00
2023-02-25T12:04:22.741Z,96642.00
2023-02-25T12:07:27.126Z,96652.00
2023-02-25T12:10:29.471Z,96647.00
2023-02-25T12:13:33.173Z,96658.00
2023-02-25T12:16:18.595Z,96674.00
2023-02-25T12:19:23.745Z,96674.00
2023-02-25T12:22:46.729Z,96673.00
2023-02-25T12:25:30.276Z,96665.00
2023-02-25T12:28:49.738Z,96648.00
2023-02-25T12:32:05.272Z,96672.00
2023-02-25T12:35:24.930Z,96674.00
2023-02-25T12:38:45.352Z,96678.00
2023-02-25T12:41:39.805Z,96686.00
2023-02-25T12:44:51.897Z,96703.00
2023-02-25T12:47:43.974Z,96685.00
2023-02-25T12:50:54.760Z,96684.00
2023-02-25T12:53:47.199Z,96682.00
2023-02-25T12:56:47.251Z,96689.00
2023-02-25T12:59:52.162Z,96678.00
2023-02-25T13:02:36.458Z,96685.00
2023-02-25T13:05:44.303Z,96692.00
2023-02-25T13:08:37.731Z,96690.00
2023-02-25T13:11:31.227Z,96675.00
2023-02-25T13:14:24.572Z,96685.00
2023-02-25T13:17:27.441Z,96681.00
2023-02-25T13:20:31.215Z,96678.00
2023-02-25T13:23:28.796Z,96686.00
2023-02-25T13:26:33.068Z,96686.00
2023-02-25T13:29:36.820Z,96688.00
2023-02-25T13:32:31.903Z,96694.00
2023-02-25T13:35:31.677Z,96689.00
2023-02-25T13:38:24.279Z,96708.00
2023-02-25T13:41:07.051Z,96696.00
2023-02-25T13:44:01.623Z,96719.00
2023-02-25T13:46:46.453Z,96710.00
2023-02-25T13:49:31.213Z,96711.00
2023-02-25T13:52:25.652Z,96714.00
2023-02-25T13:55:36.745Z,96720.00
2023-02-25T13:58:36.405Z,96735.00
2023-02-25T14:01:28.237Z,96726.00
2023-02-25T14:04:35.130Z,96724.00
2023-02-25T14:07:38.481Z,96725.00
2023-02-25T14:10:40.244Z,96732.00
2023-02-25T14:13:54.845Z,96749.00
2023-02-25T14:16:54.624Z,96753.00
2023-02-25T14:19:43.360Z,96762.00
2023-02-25T14:22:43.783Z,96753.00
2023-02-25T14:25:28.920Z,96756.00
2023-02-25T14:28:31.728Z,96766.00
2023-02-25T14:31:24.565Z,96759.00
2023-02-25T14:34:12.267Z,96762.00
2023-02-25T14:36:59.743Z,96742.00
2023-02-25T14:39:44.358Z,96739.00
2023-02-25T14:42:40.708Z,96740.00
2023-02-25T14:45:10.185Z,96760.00
2023-02-25T14:48:03.831Z,96765.00
2023-02-25T14:50:45.440Z,96778.00
2023-02-25T14:53:48.784Z,96772.00
2023-02-25T14:56:48.856Z,96775.00
2023-02-25T14:59:48.878Z,96784.00
2023-02-25T15:03:02.952Z,96787.00
2023-02-25T15:05:54.768Z,96793.00
2023-02-25T15:08:34.751Z,96793.00
2023-02-25T15:11:24.101Z,96806.00
2023-02-25T15:14:34.318Z,96793.00
2023-02-25T15:17:56.418Z,96817.00
2023-02-25T15:20:38.986Z,96807.00
2023-02-25T15:23:20.410Z,96811.00
2023-02-25T15:26:23.924Z,96801.00
2023-02-25T15:28:53.383Z,96784.00
2023-02-25T15:31:30.158Z,96815.00
2023-02-25T15:34:21.702Z,96815.00
2023-02-25T15:36:50.220Z,96823.00
2023-02-25T15:39:41.888Z,96830.00
2023-02-25T15:42:15.305Z,96839.00
2023-02-25T15:44:44.207Z,96834.00
2023-02-25T15:47:24.226Z,96839.00
2023-02-25T15:49:52.929Z,96835.00
2023-02-25T15:52:52.955Z,96840.00
2023-02-25T15:55:44.953Z,96844.00
2023-02-25T15:58:23.988Z,96840.00
2023-02-25T16:00:57.695Z,96845.00
2023-02-25T16:03:40.097Z,96845.00
2023-02-25T16:06:32.149Z,96848.00
2023-02-25T16:09:18.000Z,96846.00
2023-02-25T16:11:53.443Z,96863.00
2023-02-25T16:14:31.533Z,96862.00
2023-02-25T16:17:13.881Z,96867.00
2023-02-25T16:19:42.167Z,96871.00
2023-02-25T16:22:23.525Z,96876.00
2023-02-25T16:25:01.646Z,96866.00
2023-02-25T16:27:56.109Z,96878.00
2023-02-25T16:30:42.330Z,96881.00
2023-02-25T16:33:30.664Z,96885.00
2023-02-25T16:36:10.852Z,96896.00
2023-02-25T16:38:56.943Z,96901.00
2023-02-25T16:41:36.428Z,96913.00
2023-02-25T16:44:05.166Z,96909.00
2023-02-25T16:46:39.221Z,96904.00
2023-02-25T16:49:20.759Z,96922.00
2023-02-25T16:51:48.254Z,96905.00
2023-02-25T16:54:28.848Z,96908.00
2023-02-25T16:57:01.549Z,96929.00
2023-02-25T16:59:39.194Z,96949.00
2023-02-25T17:02:25.030Z,96931.00
2023-02-25T17:04:55.073Z,96939.00
2023-02-25T17:07:31.503Z,96938.00
2023-02-25T17:10:03.050Z,96944.00
2023-02-25T17:12:43.554Z,96946.00
2023-02-25T17:15:31.453Z,96955.00
2023-02-25T17:18:49.095Z,96961.00
2023-02-25T17:21:33.908Z,96954.00
2023-02-25T17:24:05.080Z,96967.00
2023-02-25T17:26:32.496Z,96961.00
2023-02-25T17:29:02.260Z,96960.00
2023-02-25T17:31:30.932Z,96979.00
2023-02-25T17:34:02.612Z,96979.00
2023-02-25T17:36:39.665Z,96981.00
2023-02-25T17:39:15.767Z,96984.00
2023-02-25T17:41:44.333Z,96992.00
2023-02-25T17:44:45.354Z,96997.00
2023-02-25T17:47:23.421Z,96984.00
2023-02-25T17:49:52.420Z,97005.00
2023-02-25T17:52:22.397Z,97006.00
2023-02-25T17:55:20.823Z,97012.00
2023-02-25T17:57:47.760Z,97023.00
2023-02-25T18:00:26.066Z,97029.00
2023-02-25T18:03:24.477Z,97037.00
2023-02-25T18:06:02.500Z,97029.00
2023-02-25T18:08:54.294Z,97032.00
2023-02-25T18:11:23.741Z,97042.00
2023-02-25T18:13:51.193Z,97042.00
2023-02-25T18:16:27.410Z,97056.00
2023-02-25T18:18:56.523Z,97042.00
2023-02-25T18:21:23.732Z,97038.00
2023-02-25T18:23:51.289Z,97049.00
2023-02-25T18:26:26.351Z,97050.00
2023-02-25T18:28:57.697Z,97054.00
2023-02-25T18:31:25.169Z,97044.00
2023-02-25T18:33:52.611Z,97065.00
2023-02-25T18:36:27.572Z,97063.00
2023-02-25T18:39:02.181Z,97065.00
2023-02-25T18:41:29.161Z,97051.00
2023-02-25T18:43:56.115Z,97074.00
2023-02-25T18:46:23.142Z,97068.00
2023-02-25T18:48:50.218Z,97060.00
2023-02-25T18:51:18.089Z,97067.00
2023-02-25T18:53:45.263Z,97066.00
2023-02-25T18:56:17.540Z,97074.00
2023-02-25T18:58:44.705Z,97085.00
2023-02-25T19:01:24.172Z,97075.00
2023-02-25T19:03:51.956Z,97075.00
2023-02-25T19:06:19.210Z,97076.00
2023-02-25T19:08:46.406Z,97096.00
2023-02-25T19:11:36.652Z,97085.00
2023-02-25T19:14:05.827Z,97091.00
2023-02-25T19:16:32.687Z,97096.00
2023-02-25T19:18:59.518Z,97095.00
2023-02-25T19:21:26.294Z,97107.00
2023-02-25T19:23:53.833Z,97101.00
2023-02-25T19:26:21.626Z,97104.00
2023-02-25T19:28:48.615Z,97101.00
2023-02-25T19:31:15.706Z,97109.00
2023-02-25T19:33:42.895Z,97104.00
2023-02-25T19:36:12.148Z,97121.00
2023-02-25T19:38:39.065Z,97111.00
2023-02-25T19:41:06.606Z,97112.00
2023-02-25T19:43:34.010Z,97116.00
2023-02-25T19:46:01.177Z,97123.00
2023-02-25T19:48:28.123Z,97125.00
2023-02-25T19:50:55.282Z,97142.00
2023-02-25T19:53:22.129Z,97136.00
2023-02-25T19:55:49.113Z,97145.00
2023-02-25T19:58:15.937Z,97144.00
2023-02-25T20:00:46.115Z,97145.00
2023-02-25T20:03:15.216Z,97147.00
2023-02-25T20:05:42.680Z,97145.00
2023-02-25T20:08:10.068Z,97162.00
2023-02-25T20:10:37.144Z,97164.00
2023-02-25T20:13:04.016Z,97154.00
2023-02-25T20:15:30.864Z,97148.00
2023-02-25T20:17:57.739Z,97155.00
2023-02-25T20:20:24.973Z,97174.00
2023-02-25T20:22:51.986Z,97141.00
2023-02-25T20:25:19.650Z,97162.00
2023-02-25T20:27:46.572Z,97167.00
2023-02-25T20:30:16.449Z,97186.00
2023-02-25T20:32:46.163Z,97188.00
2023-02-25T20:35:21.335Z,97174.00
2023-02-25T20:38:34.651Z,97169.00
2023-02-25T20:41:01.720Z,97181.00
2023-02-25T20:43:28.748Z,97181.00
2023-02-25T20:45:55.854Z,97169.00
2023-02-25T20:48:32.779Z,97186.00
2023-02-25T20:50:59.968Z,97181.00
2023-02-25T20:53:26.963Z,97180.00
2023-02-25T20:55:57.385Z,97180.00
2023-02-25T20:58:26.149Z,97198.00
2023-02-25T21:00:53.235Z,97176.00
2023-02-25T21:03:20.061Z,97170.00
2023-02-25T21:05:47.525Z,97178.00
2023-02-25T21:08:14.664Z,97180.00
2023-02-25T21:10:43.085Z,97197.00
2023-02-25T21:13:09.957Z,97197.00
2023-02-25T21:15:36.898Z,97189.00
2023-02-25T21:18:03.763Z,97185.00
2023-02-25T21:20:30.670Z,97195.00
2023-02-25T21:22:57.492Z,97181.00
2023-02-25T21:25:24.713Z,97186.00
2023-02-25T21:27:51.543Z,97204.00
2023-02-25T21:30:18.637Z,97200.00
2023-02-25T21:32:45.449Z,97205.00
2023-02-25T21:35:14.244Z,97214.00
2023-02-25T21:37:41.217Z,97213.00
2023-02-25T21:40:08.768Z,97223.00
2023-02-25T21:42:35.968Z,97233.00
2023-02-25T21:45:03.688Z,97222.00
2023-02-25T21:47:30.542Z,97210.00
2023-02-25T21:49:57.328Z,97237.00
2023-02-25T21:52:24.229Z,97221.00
2023-02-25T21:54:51.083Z,97225.00
2023-02-25T21:57:17.866Z,97227.00
2023-02-25T21:59:44.650Z,97222.00
2023-02-25T22:02:11.742Z,97245.00
2023-02-25T22:04:38.650Z,97223.00
2023-02-25T22:07:05.485Z,97225.00
2023-02-25T22:09:32.237Z,97212.00
2023-02-25T22:11:59.018Z,97220.00
2023-02-25T22:14:26.140Z,97219.00
2023-02-25T22:16:52.982Z,97218.00
2023-02-25T22:19:19.968Z,97203.00
2023-02-25T22:21:46.820Z,97213.00
2023-02-25T22:24:13.820Z,97214.00
2023-02-25T22:26:40.653Z,97213.00
2023-02-25T22:29:09.016Z,97224.00
2023-02-25T22:31:37.127Z,97222.00
2023-02-25T22:34:05.493Z,97226.00
2023-02-25T22:36:32.957Z,97227.00
2023-02-25T22:39:04.271Z,97241.00
2023-02-25T22:41:31.203Z,97237.00
2023-02-25T22:44:00.193Z,97228.00
2023-02-25T22:46:36.144Z,97237.00
2023-02-25T22:49:04.892Z,97235.00
2023-02-25T22:51:42.598Z,97243.00
2023-02-25T22:54:15.647Z,97233.00
2023-02-25T22:56:43.897Z,97246.00
2023-02-25T22:59:12.092Z,97248.00
2023-02-25T23:01:39.877Z,97246.00
2023-02-25T23:04:09.955Z,97252.00
2023-02-25T23:06:44.001Z,97263.00
2023-02-25T23:09:13.752Z,97245.00
2023-02-25T23:11:43.281Z,97256.00
2023-02-25T23:14:11.455Z,97248.00
2023-02-25T23:16:44.961Z,97249.00
2023-02-25T23:19:17.048Z,97260.00
2023-02-25T23:21:44.434Z,97254.00
2023-02-25T23:24:18.461Z,97261.00
2023-02-25T23:26:47.535Z,97256.00
2023-02-25T23:29:14.928Z,97269.00
2023-02-25T23:31:45.585Z,97268.00
2023-02-25T23:34:18.542Z,97266.00
2023-02-25T23:36:45.828Z,97258.00
2023-02-25T23:39:14.317Z,97263.00
2023-02-25T23:41:41.422Z,97269.00
2023-02-25T23:44:09.719Z,97273.00
2023-02-25T23:46:37.271Z,97266.00
2023-02-25T23:49:07.300Z,97277.00
2023-02-25T23:51:35.694Z,97291.00
2023-02-25T23:54:05.703Z,97293.00
2023-02-25T23:56:33.814Z,97288.00
2023-02-25T23:59:01.134Z,97261.00
